Asotin, WA (99402)

5:59 PM PDT on October 22, 2014 (GMT -0700)
Nick's Weather Station | Change Station
CLOSE
Current Station
Personal Weather Station
Location: Lewiston, ID
Elevation: 1076 ft
Nearby Weather Stations

Elev 1076 ft 46.37 °N, 117.04 °W | Updated 2 seconds ago

Mostly Cloudy
Mostly Cloudy
67.7 °F
Feels Like 67.7 °F
N
9.4
Wind Variable Wind from SSE
Gusts 9.4 mph

Today
High -- | Low -- °F
--% Chance of Precip.
Yesterday
High -- | Low -- °F
Precip. -- in
7:15 AM 5:49 PM
Waning Crescent, 1% visible
Pressure 29.79 in
Visibility 10.0 miles
Clouds Mostly Cloudy 10000 ft
Dew Point 40 °F
Humidity 37%
Rainfall 0.00 in
Snow Depth 0 in
UV 0 out of 12
Pollen 2.90 out of 12
Air Quality Not available.
Flu Activity Sporadic
SPECI KLWS 230004Z 17015KT 10SM BKN100 21/01 A2979 RMK AO2 WSHFT 2344 T02060011

More Conditions Fewer Conditions

Pressure 29.79 in
Visibility 10.0 miles
Clouds Mostly Cloudy 10000 ft
Dew Point 40 °F
Humidity 37%
Rainfall 0.00 in
Snow Depth 0 in
UV 0 out of 12
Pollen 2.90 out of 12
Air Quality Not available.
Flu Activity Sporadic
SPECI KLWS 230004Z 17015KT 10SM BKN100 21/01 A2979 RMK AO2 WSHFT 2344 T02060011

More Conditions Fewer Conditions

10-Day Weather Forecast

Almanac

Astronomy

Oct. 22, 2014 Rise Set
Actual Time 7:15 AM PDT 5:49 PM PDT
Civil Twilight 6:44 AM PDT 6:19 PM PDT
Nautical Twilight 6:09 AM PDT 6:54 PM PDT
Astronomical Twilight 5:34 AM PDT 7:29 PM PDT
Moon 5:57 AM PDT (10/22) 5:21 PM PDT (10/22)
Length of Visible Light 11h 35m
Length of Day
10h 33m
Tomorrow will be 3m 6s shorter.
Waning Crescent, 1% of the Moon is Illuminated
Today
Waning Crescent
Oct 23
New
Oct 30
First Quarter
Nov 6
Full
Nov 14
Last Quarter

Today's Extremes

State Highs State Lows

Community

WunderPhotos

Upload Photos

1,764,098 photos uploaded!

WunderBlogs® & News

Nearby

Snow Depth

Station Depth Elevation
Sourdough Gulch 0 in 4000 ft
Spruce Springs 1 in 5700 ft
Quartz Peak 1 in 4700 ft
Bunchgrass Meadow 0 in 5000 ft
Trough 0 in 5300 ft

Earthquake Activity

City Distance Mag. Time & Date
No recent earthquake activity has been reported nearby.
Minimum magnitude displayed is 2.5.

Coastal Water Temperatures

Place Temperature
No Stations Reporting

Nearby Weather Stations